sensor_id;sensor_type;location;lat;lon;timestamp;P1;durP1;ratioP1;P2;durP2;ratioP2
16093;SDS011;8151;47.824;12.092;2023-06-26T00:00:27;6.00;;;4.97;;
16093;SDS011;8151;47.824;12.092;2023-06-26T00:02:56;6.70;;;4.97;;
16093;SDS011;8151;47.824;12.092;2023-06-26T00:05:24;5.50;;;4.90;;
16093;SDS011;8151;47.824;12.092;2023-06-26T00:07:54;6.03;;;4.77;;
16093;SDS011;8151;47.824;12.092;2023-06-26T00:10:23;7.10;;;5.23;;
16093;SDS011;8151;47.824;12.092;2023-06-26T00:12:52;8.07;;;5.13;;
16093;SDS011;8151;47.824;12.092;2023-06-26T00:15:21;8.03;;;5.10;;
16093;SDS011;8151;47.824;12.092;2023-06-26T00:17:51;6.67;;;5.20;;
16093;SDS011;8151;47.824;12.092;2023-06-26T00:20:19;6.90;;;5.33;;
16093;SDS011;8151;47.824;12.092;2023-06-26T00:22:47;10.77;;;5.53;;
16093;SDS011;8151;47.824;12.092;2023-06-26T00:25:17;7.97;;;5.27;;
16093;SDS011;8151;47.824;12.092;2023-06-26T00:27:45;5.77;;;4.60;;
16093;SDS011;8151;47.824;12.092;2023-06-26T00:30:14;5.77;;;4.93;;
16093;SDS011;8151;47.824;12.092;2023-06-26T00:32:44;5.40;;;4.70;;
16093;SDS011;8151;47.824;12.092;2023-06-26T00:35:13;6.07;;;5.10;;
16093;SDS011;8151;47.824;12.092;2023-06-26T00:37:41;6.20;;;5.10;;
16093;SDS011;8151;47.824;12.092;2023-06-26T00:40:10;8.00;;;5.33;;
16093;SDS011;8151;47.824;12.092;2023-06-26T00:42:39;6.57;;;5.17;;
16093;SDS011;8151;47.824;12.092;2023-06-26T00:45:07;6.03;;;5.33;;
16093;SDS011;8151;47.824;12.092;2023-06-26T00:47:36;7.23;;;5.60;;
16093;SDS011;8151;47.824;12.092;2023-06-26T00:50:06;6.93;;;5.20;;
16093;SDS011;8151;47.824;12.092;2023-06-26T00:52:36;7.50;;;5.60;;
16093;SDS011;8151;47.824;12.092;2023-06-26T00:55:05;8.03;;;6.50;;
16093;SDS011;8151;47.824;12.092;2023-06-26T00:57:34;10.77;;;7.27;;
16093;SDS011;8151;47.824;12.092;2023-06-26T01:00:02;8.70;;;6.03;;
16093;SDS011;8151;47.824;12.092;2023-06-26T01:02:31;10.57;;;6.87;;
16093;SDS011;8151;47.824;12.092;2023-06-26T01:05:01;8.97;;;6.20;;
16093;SDS011;8151;47.824;12.092;2023-06-26T01:07:34;8.13;;;6.60;;
16093;SDS011;8151;47.824;12.092;2023-06-26T01:10:04;8.57;;;6.67;;
16093;SDS011;8151;47.824;12.092;2023-06-26T01:12:34;10.83;;;6.53;;
16093;SDS011;8151;47.824;12.092;2023-06-26T01:15:06;6.63;;;5.40;;
16093;SDS011;8151;47.824;12.092;2023-06-26T01:17:36;7.63;;;5.60;;
16093;SDS011;8151;47.824;12.092;2023-06-26T01:20:05;7.23;;;5.77;;
16093;SDS011;8151;47.824;12.092;2023-06-26T01:22:42;6.77;;;5.50;;
16093;SDS011;8151;47.824;12.092;2023-06-26T01:25:17;7.63;;;5.47;;
16093;SDS011;8151;47.824;12.092;2023-06-26T01:27:53;5.70;;;5.10;;
16093;SDS011;8151;47.824;12.092;2023-06-26T01:30:22;7.40;;;5.57;;
16093;SDS011;8151;47.824;12.092;2023-06-26T01:32:53;9.97;;;6.13;;
16093;SDS011;8151;47.824;12.092;2023-06-26T01:35:22;7.07;;;5.27;;
16093;SDS011;8151;47.824;12.092;2023-06-26T01:37:50;6.60;;;5.87;;
16093;SDS011;8151;47.824;12.092;2023-06-26T01:40:18;7.17;;;5.70;;
16093;SDS011;8151;47.824;12.092;2023-06-26T01:42:47;7.97;;;5.30;;
16093;SDS011;8151;47.824;12.092;2023-06-26T01:45:18;8.27;;;5.23;;
16093;SDS011;8151;47.824;12.092;2023-06-26T01:47:54;7.70;;;5.77;;
16093;SDS011;8151;47.824;12.092;2023-06-26T01:50:28;7.23;;;5.60;;
16093;SDS011;8151;47.824;12.092;2023-06-26T01:53:02;6.80;;;5.53;;
16093;SDS011;8151;47.824;12.092;2023-06-26T01:55:38;6.43;;;5.07;;
16093;SDS011;8151;47.824;12.092;2023-06-26T01:58:09;7.67;;;5.93;;
16093;SDS011;8151;47.824;12.092;2023-06-26T02:00:39;9.40;;;6.00;;
16093;SDS011;8151;47.824;12.092;2023-06-26T02:03:08;7.33;;;5.77;;
16093;SDS011;8151;47.824;12.092;2023-06-26T02:05:37;10.73;;;6.00;;
16093;SDS011;8151;47.824;12.092;2023-06-26T02:08:05;8.03;;;5.77;;
16093;SDS011;8151;47.824;12.092;2023-06-26T02:10:36;9.07;;;6.33;;
16093;SDS011;8151;47.824;12.092;2023-06-26T02:13:04;6.63;;;5.67;;
16093;SDS011;8151;47.824;12.092;2023-06-26T02:15:40;7.70;;;5.67;;
16093;SDS011;8151;47.824;12.092;2023-06-26T02:18:19;8.60;;;6.07;;
16093;SDS011;8151;47.824;12.092;2023-06-26T02:20:49;6.90;;;5.60;;
16093;SDS011;8151;47.824;12.092;2023-06-26T02:23:17;9.27;;;6.50;;
16093;SDS011;8151;47.824;12.092;2023-06-26T02:25:46;10.27;;;5.50;;
16093;SDS011;8151;47.824;12.092;2023-06-26T02:28:15;6.57;;;5.33;;
16093;SDS011;8151;47.824;12.092;2023-06-26T02:30:44;7.37;;;5.63;;
16093;SDS011;8151;47.824;12.092;2023-06-26T02:33:13;8.07;;;6.03;;
16093;SDS011;8151;47.824;12.092;2023-06-26T02:35:41;7.20;;;5.50;;
16093;SDS011;8151;47.824;12.092;2023-06-26T02:38:10;6.93;;;5.40;;
16093;SDS011;8151;47.824;12.092;2023-06-26T02:40:39;7.13;;;5.37;;
16093;SDS011;8151;47.824;12.092;2023-06-26T02:43:08;7.00;;;5.43;;
16093;SDS011;8151;47.824;12.092;2023-06-26T02:45:36;8.77;;;5.83;;
16093;SDS011;8151;47.824;12.092;2023-06-26T02:48:06;7.07;;;5.43;;
16093;SDS011;8151;47.824;12.092;2023-06-26T02:50:34;6.90;;;5.53;;
16093;SDS011;8151;47.824;12.092;2023-06-26T02:53:03;6.00;;;5.40;;
16093;SDS011;8151;47.824;12.092;2023-06-26T02:55:33;8.00;;;5.57;;
16093;SDS011;8151;47.824;12.092;2023-06-26T02:58:01;6.40;;;5.20;;
16093;SDS011;8151;47.824;12.092;2023-06-26T03:00:30;8.43;;;5.20;;
16093;SDS011;8151;47.824;12.092;2023-06-26T03:02:58;8.13;;;5.30;;
16093;SDS011;8151;47.824;12.092;2023-06-26T03:05:29;7.43;;;5.70;;
16093;SDS011;8151;47.824;12.092;2023-06-26T03:07:57;7.50;;;4.97;;
16093;SDS011;8151;47.824;12.092;2023-06-26T03:10:25;6.40;;;4.90;;
16093;SDS011;8151;47.824;12.092;2023-06-26T03:12:54;7.60;;;5.20;;
16093;SDS011;8151;47.824;12.092;2023-06-26T03:15:22;11.20;;;5.27;;
16093;SDS011;8151;47.824;12.092;2023-06-26T03:17:51;8.40;;;5.03;;
16093;SDS011;8151;47.824;12.092;2023-06-26T03:20:19;8.93;;;5.40;;
16093;SDS011;8151;47.824;12.092;2023-06-26T03:22:49;6.57;;;5.27;;
16093;SDS011;8151;47.824;12.092;2023-06-26T03:25:17;6.67;;;5.33;;
16093;SDS011;8151;47.824;12.092;2023-06-26T03:27:46;5.93;;;5.03;;
16093;SDS011;8151;47.824;12.092;2023-06-26T03:30:15;5.20;;;4.70;;
16093;SDS011;8151;47.824;12.092;2023-06-26T03:32:43;8.17;;;5.70;;
16093;SDS011;8151;47.824;12.092;2023-06-26T03:35:12;6.23;;;5.27;;
16093;SDS011;8151;47.824;12.092;2023-06-26T03:37:40;8.23;;;4.97;;
16093;SDS011;8151;47.824;12.092;2023-06-26T03:40:10;6.83;;;5.37;;
16093;SDS011;8151;47.824;12.092;2023-06-26T03:42:39;5.47;;;4.67;;
16093;SDS011;8151;47.824;12.092;2023-06-26T03:45:07;8.90;;;5.63;;
16093;SDS011;8151;47.824;12.092;2023-06-26T03:47:37;6.90;;;5.10;;
16093;SDS011;8151;47.824;12.092;2023-06-26T03:50:06;6.77;;;5.17;;
16093;SDS011;8151;47.824;12.092;2023-06-26T03:52:35;7.37;;;5.33;;
16093;SDS011;8151;47.824;12.092;2023-06-26T03:55:03;6.20;;;5.00;;
16093;SDS011;8151;47.824;12.092;2023-06-26T03:57:34;7.30;;;4.87;;
16093;SDS011;8151;47.824;12.092;2023-06-26T04:00:03;8.17;;;5.07;;
16093;SDS011;8151;47.824;12.092;2023-06-26T04:02:35;6.50;;;5.33;;
16093;SDS011;8151;47.824;12.092;2023-06-26T04:05:04;7.70;;;5.40;;
16093;SDS011;8151;47.824;12.092;2023-06-26T04:07:37;9.07;;;5.50;;
16093;SDS011;8151;47.824;12.092;2023-06-26T04:10:06;7.30;;;5.53;;
16093;SDS011;8151;47.824;12.092;2023-06-26T04:12:36;6.30;;;5.57;;
16093;SDS011;8151;47.824;12.092;2023-06-26T04:15:05;7.80;;;5.43;;
16093;SDS011;8151;47.824;12.092;2023-06-26T04:17:35;7.73;;;5.63;;
16093;SDS011;8151;47.824;12.092;2023-06-26T04:20:03;7.73;;;5.30;;
16093;SDS011;8151;47.824;12.092;2023-06-26T04:22:34;14.17;;;5.60;;
16093;SDS011;8151;47.824;12.092;2023-06-26T04:25:03;8.77;;;5.47;;
16093;SDS011;8151;47.824;12.092;2023-06-26T04:27:32;6.43;;;4.90;;
16093;SDS011;8151;47.824;12.092;2023-06-26T04:30:05;7.53;;;5.57;;
16093;SDS011;8151;47.824;12.092;2023-06-26T04:32:34;8.63;;;5.40;;
16093;SDS011;8151;47.824;12.092;2023-06-26T04:35:03;9.00;;;5.47;;
16093;SDS011;8151;47.824;12.092;2023-06-26T04:37:31;8.00;;;5.10;;
16093;SDS011;8151;47.824;12.092;2023-06-26T04:40:00;7.70;;;5.60;;
16093;SDS011;8151;47.824;12.092;2023-06-26T04:42:30;13.20;;;5.77;;
16093;SDS011;8151;47.824;12.092;2023-06-26T04:44:59;8.37;;;5.10;;
16093;SDS011;8151;47.824;12.092;2023-06-26T04:47:30;7.00;;;5.27;;
16093;SDS011;8151;47.824;12.092;2023-06-26T04:49:59;8.77;;;5.70;;
16093;SDS011;8151;47.824;12.092;2023-06-26T04:52:27;7.83;;;6.07;;
16093;SDS011;8151;47.824;12.092;2023-06-26T04:54:56;9.57;;;5.50;;
16093;SDS011;8151;47.824;12.092;2023-06-26T04:57:24;6.83;;;5.57;;
16093;SDS011;8151;47.824;12.092;2023-06-26T04:59:52;6.77;;;5.40;;
16093;SDS011;8151;47.824;12.092;2023-06-26T05:02:21;5.80;;;5.10;;
16093;SDS011;8151;47.824;12.092;2023-06-26T05:04:52;8.63;;;5.40;;
16093;SDS011;8151;47.824;12.092;2023-06-26T05:07:27;5.73;;;4.87;;
16093;SDS011;8151;47.824;12.092;2023-06-26T05:09:56;9.60;;;5.60;;
16093;SDS011;8151;47.824;12.092;2023-06-26T05:12:25;7.03;;;5.40;;
16093;SDS011;8151;47.824;12.092;2023-06-26T05:14:53;9.13;;;5.33;;
16093;SDS011;8151;47.824;12.092;2023-06-26T05:17:22;8.33;;;5.40;;
16093;SDS011;8151;47.824;12.092;2023-06-26T05:19:50;7.03;;;5.27;;
16093;SDS011;8151;47.824;12.092;2023-06-26T05:22:30;6.67;;;5.27;;
16093;SDS011;8151;47.824;12.092;2023-06-26T05:25:00;6.90;;;5.20;;
16093;SDS011;8151;47.824;12.092;2023-06-26T05:27:33;11.27;;;5.73;;
16093;SDS011;8151;47.824;12.092;2023-06-26T05:30:02;7.97;;;5.63;;
16093;SDS011;8151;47.824;12.092;2023-06-26T05:32:32;6.50;;;5.30;;
16093;SDS011;8151;47.824;12.092;2023-06-26T05:35:04;7.30;;;5.17;;
16093;SDS011;8151;47.824;12.092;2023-06-26T05:37:33;8.90;;;5.13;;
16093;SDS011;8151;47.824;12.092;2023-06-26T05:40:02;6.07;;;5.33;;
16093;SDS011;8151;47.824;12.092;2023-06-26T05:42:32;8.93;;;5.40;;
16093;SDS011;8151;47.824;12.092;2023-06-26T05:45:01;9.43;;;6.30;;
16093;SDS011;8151;47.824;12.092;2023-06-26T05:47:30;6.30;;;5.50;;
16093;SDS011;8151;47.824;12.092;2023-06-26T05:49:58;8.70;;;5.43;;
16093;SDS011;8151;47.824;12.092;2023-06-26T05:52:29;7.57;;;5.40;;
16093;SDS011;8151;47.824;12.092;2023-06-26T05:54:58;13.67;;;5.03;;
16093;SDS011;8151;47.824;12.092;2023-06-26T05:57:27;6.37;;;5.50;;
16093;SDS011;8151;47.824;12.092;2023-06-26T05:59:57;9.03;;;5.30;;
16093;SDS011;8151;47.824;12.092;2023-06-26T06:02:26;7.13;;;5.67;;
16093;SDS011;8151;47.824;12.092;2023-06-26T06:04:57;7.50;;;5.20;;
16093;SDS011;8151;47.824;12.092;2023-06-26T06:07:26;8.70;;;5.43;;
16093;SDS011;8151;47.824;12.092;2023-06-26T06:09:56;6.23;;;5.07;;
16093;SDS011;8151;47.824;12.092;2023-06-26T06:12:24;7.97;;;5.37;;
16093;SDS011;8151;47.824;12.092;2023-06-26T06:14:53;8.87;;;5.30;;
16093;SDS011;8151;47.824;12.092;2023-06-26T06:17:21;7.23;;;5.87;;
16093;SDS011;8151;47.824;12.092;2023-06-26T06:19:50;7.03;;;5.60;;
16093;SDS011;8151;47.824;12.092;2023-06-26T06:22:19;6.50;;;5.20;;
16093;SDS011;8151;47.824;12.092;2023-06-26T06:24:48;7.70;;;5.63;;
16093;SDS011;8151;47.824;12.092;2023-06-26T06:27:19;6.90;;;5.23;;
16093;SDS011;8151;47.824;12.092;2023-06-26T06:29:48;6.67;;;5.60;;
16093;SDS011;8151;47.824;12.092;2023-06-26T06:32:16;11.50;;;5.47;;
16093;SDS011;8151;47.824;12.092;2023-06-26T06:34:44;8.70;;;5.97;;
16093;SDS011;8151;47.824;12.092;2023-06-26T06:37:13;8.90;;;5.70;;
16093;SDS011;8151;47.824;12.092;2023-06-26T06:39:41;6.00;;;4.90;;
16093;SDS011;8151;47.824;12.092;2023-06-26T06:42:10;7.73;;;5.67;;
16093;SDS011;8151;47.824;12.092;2023-06-26T06:44:40;7.40;;;5.90;;
16093;SDS011;8151;47.824;12.092;2023-06-26T06:47:08;9.07;;;6.03;;
16093;SDS011;8151;47.824;12.092;2023-06-26T06:49:36;8.23;;;5.70;;
16093;SDS011;8151;47.824;12.092;2023-06-26T06:52:05;7.93;;;5.90;;
16093;SDS011;8151;47.824;12.092;2023-06-26T06:54:34;7.33;;;5.40;;
16093;SDS011;8151;47.824;12.092;2023-06-26T06:57:19;6.80;;;6.07;;
16093;SDS011;8151;47.824;12.092;2023-06-26T06:59:49;7.00;;;5.70;;
16093;SDS011;8151;47.824;12.092;2023-06-26T07:02:18;6.93;;;5.50;;
16093;SDS011;8151;47.824;12.092;2023-06-26T07:04:47;6.23;;;5.50;;
16093;SDS011;8151;47.824;12.092;2023-06-26T07:07:18;9.77;;;5.57;;
16093;SDS011;8151;47.824;12.092;2023-06-26T07:09:47;10.47;;;5.53;;
16093;SDS011;8151;47.824;12.092;2023-06-26T07:12:15;6.70;;;5.03;;
16093;SDS011;8151;47.824;12.092;2023-06-26T07:14:44;6.37;;;5.30;;
16093;SDS011;8151;47.824;12.092;2023-06-26T07:17:13;6.80;;;5.23;;
16093;SDS011;8151;47.824;12.092;2023-06-26T07:19:45;7.37;;;5.80;;
16093;SDS011;8151;47.824;12.092;2023-06-26T07:22:14;7.03;;;5.70;;
16093;SDS011;8151;47.824;12.092;2023-06-26T07:24:43;10.17;;;5.60;;
16093;SDS011;8151;47.824;12.092;2023-06-26T07:27:11;10.20;;;5.30;;
16093;SDS011;8151;47.824;12.092;2023-06-26T07:29:40;7.43;;;5.57;;
16093;SDS011;8151;47.824;12.092;2023-06-26T07:32:08;7.20;;;5.17;;
16093;SDS011;8151;47.824;12.092;2023-06-26T07:34:42;6.40;;;5.33;;
16093;SDS011;8151;47.824;12.092;2023-06-26T07:37:10;6.80;;;5.77;;
16093;SDS011;8151;47.824;12.092;2023-06-26T07:39:39;7.50;;;5.53;;
16093;SDS011;8151;47.824;12.092;2023-06-26T07:42:07;7.27;;;5.90;;
16093;SDS011;8151;47.824;12.092;2023-06-26T07:44:36;6.67;;;5.37;;
16093;SDS011;8151;47.824;12.092;2023-06-26T07:47:05;7.83;;;5.90;;
16093;SDS011;8151;47.824;12.092;2023-06-26T07:49:33;6.50;;;5.70;;
16093;SDS011;8151;47.824;12.092;2023-06-26T07:52:09;5.70;;;5.07;;
16093;SDS011;8151;47.824;12.092;2023-06-26T07:54:37;7.27;;;5.60;;
16093;SDS011;8151;47.824;12.092;2023-06-26T07:57:06;7.17;;;5.77;;
16093;SDS011;8151;47.824;12.092;2023-06-26T07:59:35;6.10;;;5.50;;
16093;SDS011;8151;47.824;12.092;2023-06-26T08:02:04;7.60;;;5.73;;
16093;SDS011;8151;47.824;12.092;2023-06-26T08:04:34;7.93;;;5.27;;
16093;SDS011;8151;47.824;12.092;2023-06-26T08:07:03;6.53;;;5.43;;
16093;SDS011;8151;47.824;12.092;2023-06-26T08:09:33;6.63;;;5.30;;
16093;SDS011;8151;47.824;12.092;2023-06-26T08:12:02;6.93;;;5.60;;
16093;SDS011;8151;47.824;12.092;2023-06-26T08:14:32;6.10;;;5.13;;
16093;SDS011;8151;47.824;12.092;2023-06-26T08:17:01;8.90;;;5.63;;
16093;SDS011;8151;47.824;12.092;2023-06-26T08:19:29;7.57;;;5.43;;
16093;SDS011;8151;47.824;12.092;2023-06-26T08:22:00;7.60;;;5.70;;
16093;SDS011;8151;47.824;12.092;2023-06-26T08:24:29;7.87;;;5.90;;
16093;SDS011;8151;47.824;12.092;2023-06-26T08:26:59;5.83;;;5.23;;
16093;SDS011;8151;47.824;12.092;2023-06-26T08:29:27;6.37;;;5.37;;
16093;SDS011;8151;47.824;12.092;2023-06-26T08:31:56;6.93;;;5.63;;
16093;SDS011;8151;47.824;12.092;2023-06-26T08:34:24;10.53;;;6.00;;
16093;SDS011;8151;47.824;12.092;2023-06-26T08:36:53;8.35;;;5.40;;
16093;SDS011;8151;47.824;12.092;2023-06-26T08:39:21;6.67;;;5.47;;
16093;SDS011;8151;47.824;12.092;2023-06-26T08:41:50;7.33;;;5.33;;
16093;SDS011;8151;47.824;12.092;2023-06-26T08:44:20;5.65;;;5.13;;
16093;SDS011;8151;47.824;12.092;2023-06-26T08:46:51;9.02;;;5.22;;
16093;SDS011;8151;47.824;12.092;2023-06-26T08:49:20;5.90;;;5.30;;
16093;SDS011;8151;47.824;12.092;2023-06-26T08:51:56;8.00;;;5.13;;
16093;SDS011;8151;47.824;12.092;2023-06-26T08:54:30;4.90;;;4.40;;
16093;SDS011;8151;47.824;12.092;2023-06-26T08:57:04;7.38;;;5.75;;
16093;SDS011;8151;47.824;12.092;2023-06-26T08:59:36;5.78;;;5.07;;
16093;SDS011;8151;47.824;12.092;2023-06-26T09:02:05;6.28;;;5.13;;
16093;SDS011;8151;47.824;12.092;2023-06-26T09:04:34;6.70;;;5.60;;
16093;SDS011;8151;47.824;12.092;2023-06-26T09:07:03;5.90;;;5.30;;
16093;SDS011;8151;47.824;12.092;2023-06-26T09:09:32;6.40;;;5.25;;
16093;SDS011;8151;47.824;12.092;2023-06-26T09:12:01;7.00;;;5.38;;
16093;SDS011;8151;47.824;12.092;2023-06-26T09:14:30;7.00;;;5.50;;
16093;SDS011;8151;47.824;12.092;2023-06-26T09:17:01;7.45;;;5.07;;
16093;SDS011;8151;47.824;12.092;2023-06-26T09:19:30;5.55;;;4.93;;
16093;SDS011;8151;47.824;12.092;2023-06-26T09:22:00;6.85;;;5.35;;
16093;SDS011;8151;47.824;12.092;2023-06-26T09:24:30;5.70;;;5.10;;
16093;SDS011;8151;47.824;12.092;2023-06-26T09:26:58;5.75;;;5.10;;
16093;SDS011;8151;47.824;12.092;2023-06-26T09:29:27;6.18;;;5.38;;
16093;SDS011;8151;47.824;12.092;2023-06-26T09:31:56;5.90;;;5.30;;
16093;SDS011;8151;47.824;12.092;2023-06-26T09:34:31;9.32;;;5.05;;
16093;SDS011;8151;47.824;12.092;2023-06-26T09:37:00;6.22;;;5.25;;
16093;SDS011;8151;47.824;12.092;2023-06-26T09:39:30;5.90;;;4.90;;
16093;SDS011;8151;47.824;12.092;2023-06-26T09:41:58;5.05;;;4.55;;
16093;SDS011;8151;47.824;12.092;2023-06-26T09:44:33;4.45;;;4.05;;
16093;SDS011;8151;47.824;12.092;2023-06-26T09:47:01;5.90;;;4.40;;
16093;SDS011;8151;47.824;12.092;2023-06-26T09:49:32;5.00;;;4.45;;
16093;SDS011;8151;47.824;12.092;2023-06-26T09:52:01;5.72;;;4.50;;
16093;SDS011;8151;47.824;12.092;2023-06-26T09:54:30;5.55;;;4.20;;
16093;SDS011;8151;47.824;12.092;2023-06-26T09:57:07;6.97;;;3.97;;
16093;SDS011;8151;47.824;12.092;2023-06-26T09:59:36;4.43;;;3.90;;
16093;SDS011;8151;47.824;12.092;2023-06-26T10:02:05;4.43;;;4.03;;
16093;SDS011;8151;47.824;12.092;2023-06-26T10:04:36;7.40;;;3.97;;
16093;SDS011;8151;47.824;12.092;2023-06-26T10:07:06;6.43;;;3.95;;
16093;SDS011;8151;47.824;12.092;2023-06-26T10:09:40;4.53;;;4.13;;
16093;SDS011;8151;47.824;12.092;2023-06-26T10:12:11;4.70;;;4.30;;
16093;SDS011;8151;47.824;12.092;2023-06-26T10:14:45;4.55;;;4.15;;
16093;SDS011;8151;47.824;12.092;2023-06-26T10:17:15;5.45;;;3.95;;
16093;SDS011;8151;47.824;12.092;2023-06-26T10:19:48;5.57;;;4.05;;
16093;SDS011;8151;47.824;12.092;2023-06-26T10:22:18;5.70;;;4.30;;
16093;SDS011;8151;47.824;12.092;2023-06-26T10:24:52;6.95;;;4.10;;
16093;SDS011;8151;47.824;12.092;2023-06-26T10:27:23;4.88;;;4.10;;
16093;SDS011;8151;47.824;12.092;2023-06-26T10:29:54;4.40;;;3.83;;
16093;SDS011;8151;47.824;12.092;2023-06-26T10:32:24;7.38;;;4.25;;
16093;SDS011;8151;47.824;12.092;2023-06-26T10:34:56;8.30;;;4.25;;
16093;SDS011;8151;47.824;12.092;2023-06-26T10:37:40;8.00;;;3.80;;
16093;SDS011;8151;47.824;12.092;2023-06-26T10:40:12;5.95;;;4.10;;
16093;SDS011;8151;47.824;12.092;2023-06-26T10:42:41;5.15;;;4.65;;
16093;SDS011;8151;47.824;12.092;2023-06-26T10:45:10;9.20;;;5.25;;
16093;SDS011;8151;47.824;12.092;2023-06-26T10:47:41;3.97;;;3.55;;
16093;SDS011;8151;47.824;12.092;2023-06-26T10:50:22;3.67;;;3.38;;
16093;SDS011;8151;47.824;12.092;2023-06-26T10:55:36;6.05;;;3.63;;
16093;SDS011;8151;47.824;12.092;2023-06-26T10:58:05;3.90;;;3.60;;
16093;SDS011;8151;47.824;12.092;2023-06-26T11:01:19;3.55;;;3.25;;
16093;SDS011;8151;47.824;12.092;2023-06-26T11:06:46;4.70;;;4.20;;
16093;SDS011;8151;47.824;12.092;2023-06-26T11:09:23;4.13;;;3.67;;
16093;SDS011;8151;47.824;12.092;2023-06-26T11:11:56;3.78;;;3.47;;
16093;SDS011;8151;47.824;12.092;2023-06-26T11:14:26;3.65;;;3.35;;
16093;SDS011;8151;47.824;12.092;2023-06-26T11:16:55;3.97;;;3.58;;
16093;SDS011;8151;47.824;12.092;2023-06-26T11:19:25;4.07;;;3.72;;
16093;SDS011;8151;47.824;12.092;2023-06-26T11:22:01;4.82;;;3.40;;
16093;SDS011;8151;47.824;12.092;2023-06-26T11:24:31;5.03;;;3.08;;
16093;SDS011;8151;47.824;12.092;2023-06-26T11:27:01;4.65;;;3.22;;
16093;SDS011;8151;47.824;12.092;2023-06-26T11:29:31;4.32;;;3.20;;
16093;SDS011;8151;47.824;12.092;2023-06-26T11:32:01;5.10;;;3.60;;
16093;SDS011;8151;47.824;12.092;2023-06-26T11:34:33;5.57;;;3.78;;
16093;SDS011;8151;47.824;12.092;2023-06-26T11:37:03;3.78;;;3.40;;
16093;SDS011;8151;47.824;12.092;2023-06-26T11:39:33;4.50;;;3.30;;
16093;SDS011;8151;47.824;12.092;2023-06-26T11:42:02;3.50;;;3.20;;
16093;SDS011;8151;47.824;12.092;2023-06-26T11:44:30;3.03;;;2.75;;
16093;SDS011;8151;47.824;12.092;2023-06-26T11:46:59;3.40;;;3.10;;
16093;SDS011;8151;47.824;12.092;2023-06-26T11:49:28;5.28;;;3.78;;
16093;SDS011;8151;47.824;12.092;2023-06-26T11:51:57;3.50;;;3.20;;
16093;SDS011;8151;47.824;12.092;2023-06-26T11:54:27;4.45;;;3.53;;
16093;SDS011;8151;47.824;12.092;2023-06-26T11:56:57;3.58;;;2.90;;
16093;SDS011;8151;47.824;12.092;2023-06-26T11:59:34;4.38;;;3.05;;
16093;SDS011;8151;47.824;12.092;2023-06-26T12:02:05;4.05;;;3.20;;
16093;SDS011;8151;47.824;12.092;2023-06-26T12:04:35;4.30;;;3.47;;
16093;SDS011;8151;47.824;12.092;2023-06-26T12:07:06;5.03;;;3.20;;
16093;SDS011;8151;47.824;12.092;2023-06-26T12:09:39;6.47;;;3.42;;
16093;SDS011;8151;47.824;12.092;2023-06-26T12:12:09;6.38;;;3.30;;
16093;SDS011;8151;47.824;12.092;2023-06-26T12:14:38;3.90;;;3.25;;
16093;SDS011;8151;47.824;12.092;2023-06-26T12:17:09;4.13;;;3.78;;
16093;SDS011;8151;47.824;12.092;2023-06-26T12:19:39;4.38;;;3.40;;
16093;SDS011;8151;47.824;12.092;2023-06-26T12:22:11;3.97;;;3.30;;
16093;SDS011;8151;47.824;12.092;2023-06-26T12:24:41;3.22;;;2.92;;
16093;SDS011;8151;47.824;12.092;2023-06-26T12:27:11;4.20;;;3.15;;
16093;SDS011;8151;47.824;12.092;2023-06-26T12:29:40;3.63;;;3.28;;
16093;SDS011;8151;47.824;12.092;2023-06-26T12:32:14;3.35;;;3.05;;
16093;SDS011;8151;47.824;12.092;2023-06-26T12:34:46;4.10;;;3.55;;
16093;SDS011;8151;47.824;12.092;2023-06-26T12:37:17;3.88;;;3.40;;
16093;SDS011;8151;47.824;12.092;2023-06-26T12:39:47;3.80;;;3.50;;
16093;SDS011;8151;47.824;12.092;2023-06-26T12:42:17;3.70;;;3.40;;
16093;SDS011;8151;47.824;12.092;2023-06-26T12:44:47;3.72;;;3.42;;
16093;SDS011;8151;47.824;12.092;2023-06-26T12:47:16;4.25;;;3.85;;
16093;SDS011;8151;47.824;12.092;2023-06-26T12:49:49;3.80;;;3.40;;
16093;SDS011;8151;47.824;12.092;2023-06-26T12:52:18;3.58;;;3.15;;
16093;SDS011;8151;47.824;12.092;2023-06-26T12:54:52;5.13;;;3.22;;
16093;SDS011;8151;47.824;12.092;2023-06-26T12:57:23;3.50;;;3.20;;
16093;SDS011;8151;47.824;12.092;2023-06-26T12:59:52;3.95;;;3.60;;
16093;SDS011;8151;47.824;12.092;2023-06-26T13:02:21;5.25;;;3.80;;
16093;SDS011;8151;47.824;12.092;2023-06-26T13:04:49;3.80;;;3.50;;
16093;SDS011;8151;47.824;12.092;2023-06-26T13:07:18;3.80;;;3.50;;
16093;SDS011;8151;47.824;12.092;2023-06-26T13:09:46;4.18;;;3.83;;
16093;SDS011;8151;47.824;12.092;2023-06-26T13:12:17;4.25;;;3.85;;
16093;SDS011;8151;47.824;12.092;2023-06-26T13:14:45;4.47;;;3.80;;
16093;SDS011;8151;47.824;12.092;2023-06-26T13:17:15;4.30;;;3.90;;
16093;SDS011;8151;47.824;12.092;2023-06-26T13:19:43;3.80;;;3.50;;
16093;SDS011;8151;47.824;12.092;2023-06-26T13:22:11;4.82;;;3.72;;
16093;SDS011;8151;47.824;12.092;2023-06-26T13:24:40;4.03;;;3.60;;
16093;SDS011;8151;47.824;12.092;2023-06-26T13:27:09;3.65;;;3.35;;
16093;SDS011;8151;47.824;12.092;2023-06-26T13:29:39;4.28;;;3.88;;
16093;SDS011;8151;47.824;12.092;2023-06-26T13:32:07;4.80;;;3.65;;
16093;SDS011;8151;47.824;12.092;2023-06-26T13:34:36;6.13;;;3.70;;
16093;SDS011;8151;47.824;12.092;2023-06-26T13:37:05;5.40;;;3.72;;
16093;SDS011;8151;47.824;12.092;2023-06-26T13:39:33;4.15;;;3.72;;
16093;SDS011;8151;47.824;12.092;2023-06-26T13:42:02;4.05;;;3.65;;
16093;SDS011;8151;47.824;12.092;2023-06-26T13:44:31;3.97;;;3.60;;
16093;SDS011;8151;47.824;12.092;2023-06-26T13:47:21;3.88;;;3.58;;
16093;SDS011;8151;47.824;12.092;2023-06-26T13:49:50;4.90;;;4.40;;
16093;SDS011;8151;47.824;12.092;2023-06-26T13:52:18;4.88;;;4.07;;
16093;SDS011;8151;47.824;12.092;2023-06-26T13:54:47;5.10;;;4.60;;
16093;SDS011;8151;47.824;12.092;2023-06-26T13:57:15;4.03;;;3.60;;
16093;SDS011;8151;47.824;12.092;2023-06-26T13:59:46;5.35;;;3.97;;
16093;SDS011;8151;47.824;12.092;2023-06-26T14:02:14;4.40;;;4.00;;
16093;SDS011;8151;47.824;12.092;2023-06-26T14:04:44;5.18;;;4.60;;
16093;SDS011;8151;47.824;12.092;2023-06-26T14:07:13;5.03;;;3.72;;
16093;SDS011;8151;47.824;12.092;2023-06-26T14:09:42;4.47;;;3.55;;
16093;SDS011;8151;47.824;12.092;2023-06-26T14:12:10;5.55;;;3.72;;
16093;SDS011;8151;47.824;12.092;2023-06-26T14:14:39;5.63;;;4.10;;
16093;SDS011;8151;47.824;12.092;2023-06-26T14:17:08;5.93;;;4.03;;
16093;SDS011;8151;47.824;12.092;2023-06-26T14:19:44;4.57;;;4.15;;
16093;SDS011;8151;47.824;12.092;2023-06-26T14:22:13;4.68;;;4.28;;
16093;SDS011;8151;47.824;12.092;2023-06-26T14:24:42;4.88;;;4.32;;
16093;SDS011;8151;47.824;12.092;2023-06-26T14:27:10;4.53;;;4.13;;
16093;SDS011;8151;47.824;12.092;2023-06-26T14:29:38;4.30;;;3.90;;
16093;SDS011;8151;47.824;12.092;2023-06-26T14:32:07;4.90;;;4.30;;
16093;SDS011;8151;47.824;12.092;2023-06-26T14:34:35;4.88;;;4.47;;
16093;SDS011;8151;47.824;12.092;2023-06-26T14:37:05;4.50;;;4.05;;
16093;SDS011;8151;47.824;12.092;2023-06-26T14:39:34;4.82;;;4.43;;
16093;SDS011;8151;47.824;12.092;2023-06-26T14:42:03;5.95;;;4.20;;
16093;SDS011;8151;47.824;12.092;2023-06-26T14:44:32;7.15;;;4.95;;
16093;SDS011;8151;47.824;12.092;2023-06-26T14:47:01;5.32;;;4.57;;
16093;SDS011;8151;47.824;12.092;2023-06-26T14:49:31;4.65;;;4.10;;
16093;SDS011;8151;47.824;12.092;2023-06-26T14:51:59;5.07;;;4.10;;
16093;SDS011;8151;47.824;12.092;2023-06-26T14:54:29;6.57;;;4.72;;
16093;SDS011;8151;47.824;12.092;2023-06-26T14:56:59;5.32;;;4.68;;
16093;SDS011;8151;47.824;12.092;2023-06-26T14:59:27;5.18;;;4.68;;
16093;SDS011;8151;47.824;12.092;2023-06-26T15:01:56;5.30;;;4.38;;
16093;SDS011;8151;47.824;12.092;2023-06-26T15:04:24;5.55;;;4.70;;
16093;SDS011;8151;47.824;12.092;2023-06-26T15:06:53;4.95;;;4.43;;
16093;SDS011;8151;47.824;12.092;2023-06-26T15:09:21;5.60;;;5.00;;